sensor_id;sensor_type;location;lat;lon;timestamp;temperature;humidity
6480;DHT22;71753;48.772;9.148;2024-02-26T00:00:52;7.71;61.29
6480;DHT22;71753;48.772;9.148;2024-02-26T00:03:20;7.64;62.27
6480;DHT22;71753;48.772;9.148;2024-02-26T00:05:47;7.62;61.99
6480;DHT22;71753;48.772;9.148;2024-02-26T00:08:13;7.72;61.20
6480;DHT22;71753;48.772;9.148;2024-02-26T00:10:40;7.63;62.12
6480;DHT22;71753;48.772;9.148;2024-02-26T00:13:08;7.50;63.41
6480;DHT22;71753;48.772;9.148;2024-02-26T00:15:34;7.47;63.09
6480;DHT22;71753;48.772;9.148;2024-02-26T00:18:01;7.47;63.18
6480;DHT22;71753;48.772;9.148;2024-02-26T00:20:29;7.49;62.44
6480;DHT22;71753;48.772;9.148;2024-02-26T00:22:56;7.60;62.00
6480;DHT22;71753;48.772;9.148;2024-02-26T00:25:22;7.60;63.17
6480;DHT22;71753;48.772;9.148;2024-02-26T00:27:49;7.46;63.42
6480;DHT22;71753;48.772;9.148;2024-02-26T00:30:16;7.49;63.40
6480;DHT22;71753;48.772;9.148;2024-02-26T00:32:43;7.48;63.42
6480;DHT22;71753;48.772;9.148;2024-02-26T00:35:09;7.52;62.67
6480;DHT22;71753;48.772;9.148;2024-02-26T00:37:37;7.61;62.06
6480;DHT22;71753;48.772;9.148;2024-02-26T00:40:05;7.68;61.91
6480;DHT22;71753;48.772;9.148;2024-02-26T00:42:34;7.68;61.70
6480;DHT22;71753;48.772;9.148;2024-02-26T00:45:00;7.72;61.18
6480;DHT22;71753;48.772;9.148;2024-02-26T00:47:27;7.74;61.47
6480;DHT22;71753;48.772;9.148;2024-02-26T00:49:54;7.64;62.89
6480;DHT22;71753;48.772;9.148;2024-02-26T00:52:20;7.41;64.20
6480;DHT22;71753;48.772;9.148;2024-02-26T00:54:48;7.54;63.78
6480;DHT22;71753;48.772;9.148;2024-02-26T00:57:15;7.52;64.21
6480;DHT22;71753;48.772;9.148;2024-02-26T00:59:42;7.53;63.37
6480;DHT22;71753;48.772;9.148;2024-02-26T01:02:08;7.54;62.63
6480;DHT22;71753;48.772;9.148;2024-02-26T01:04:35;7.59;62.18
6480;DHT22;71753;48.772;9.148;2024-02-26T01:07:02;7.45;64.12
6480;DHT22;71753;48.772;9.148;2024-02-26T01:09:29;7.35;63.56
6480;DHT22;71753;48.772;9.148;2024-02-26T01:11:57;7.41;62.82
6480;DHT22;71753;48.772;9.148;2024-02-26T01:14:23;7.31;64.53
6480;DHT22;71753;48.772;9.148;2024-02-26T01:16:50;7.38;63.79
6480;DHT22;71753;48.772;9.148;2024-02-26T01:19:16;7.27;65.46
6480;DHT22;71753;48.772;9.148;2024-02-26T01:21:43;7.40;64.24
6480;DHT22;71753;48.772;9.148;2024-02-26T01:24:10;7.46;64.30
6480;DHT22;71753;48.772;9.148;2024-02-26T01:26:36;7.41;64.33
6480;DHT22;71753;48.772;9.148;2024-02-26T01:29:04;7.17;66.03
6480;DHT22;71753;48.772;9.148;2024-02-26T01:31:31;7.25;65.59
6480;DHT22;71753;48.772;9.148;2024-02-26T01:33:58;7.19;66.43
6480;DHT22;71753;48.772;9.148;2024-02-26T01:36:24;7.10;67.36
6480;DHT22;71753;48.772;9.148;2024-02-26T01:38:51;6.97;67.36
6480;DHT22;71753;48.772;9.148;2024-02-26T01:41:18;6.90;67.88
6480;DHT22;71753;48.772;9.148;2024-02-26T01:43:45;6.84;67.40
6480;DHT22;71753;48.772;9.148;2024-02-26T01:46:14;7.07;64.56
6480;DHT22;71753;48.772;9.148;2024-02-26T01:48:43;7.17;64.42
6480;DHT22;71753;48.772;9.148;2024-02-26T01:51:12;7.19;64.24
6480;DHT22;71753;48.772;9.148;2024-02-26T01:53:40;7.18;63.88
6480;DHT22;71753;48.772;9.148;2024-02-26T01:56:07;7.27;62.79
6480;DHT22;71753;48.772;9.148;2024-02-26T01:58:35;7.39;61.70
6480;DHT22;71753;48.772;9.148;2024-02-26T02:01:02;7.32;62.74
6480;DHT22;71753;48.772;9.148;2024-02-26T02:03:30;7.31;62.73
6480;DHT22;71753;48.772;9.148;2024-02-26T02:05:57;7.33;62.80
6480;DHT22;71753;48.772;9.148;2024-02-26T02:08:24;7.38;62.10
6480;DHT22;71753;48.772;9.148;2024-02-26T02:10:51;7.48;60.06
6480;DHT22;71753;48.772;9.148;2024-02-26T02:13:17;7.52;59.77
6480;DHT22;71753;48.772;9.148;2024-02-26T02:15:44;7.54;59.60
6480;DHT22;71753;48.772;9.148;2024-02-26T02:18:11;7.56;60.60
6480;DHT22;71753;48.772;9.148;2024-02-26T02:20:39;7.45;62.06
6480;DHT22;71753;48.772;9.148;2024-02-26T02:23:05;7.38;61.15
6480;DHT22;71753;48.772;9.148;2024-02-26T02:25:32;7.37;61.47
6480;DHT22;71753;48.772;9.148;2024-02-26T02:27:59;7.34;61.29
6480;DHT22;71753;48.772;9.148;2024-02-26T02:30:28;7.34;61.31
6480;DHT22;71753;48.772;9.148;2024-02-26T02:32:55;7.30;60.98
6480;DHT22;71753;48.772;9.148;2024-02-26T02:35:23;7.35;60.57
6480;DHT22;71753;48.772;9.148;2024-02-26T02:37:52;7.43;59.54
6480;DHT22;71753;48.772;9.148;2024-02-26T02:40:18;7.48;60.44
6480;DHT22;71753;48.772;9.148;2024-02-26T02:42:45;7.45;59.72
6480;DHT22;71753;48.772;9.148;2024-02-26T02:45:12;7.41;61.47
6480;DHT22;71753;48.772;9.148;2024-02-26T02:47:38;7.31;62.02
6480;DHT22;71753;48.772;9.148;2024-02-26T02:50:06;7.37;61.07
6480;DHT22;71753;48.772;9.148;2024-02-26T02:52:33;7.37;60.75
6480;DHT22;71753;48.772;9.148;2024-02-26T02:55:01;7.42;61.05
6480;DHT22;71753;48.772;9.148;2024-02-26T02:57:28;7.54;59.78
6480;DHT22;71753;48.772;9.148;2024-02-26T02:59:55;7.67;59.51
6480;DHT22;71753;48.772;9.148;2024-02-26T03:02:21;7.67;59.49
6480;DHT22;71753;48.772;9.148;2024-02-26T03:04:50;7.78;58.09
6480;DHT22;71753;48.772;9.148;2024-02-26T03:07:17;7.92;58.18
6480;DHT22;71753;48.772;9.148;2024-02-26T03:09:43;7.96;60.73
6480;DHT22;71753;48.772;9.148;2024-02-26T03:12:11;7.92;60.69
6480;DHT22;71753;48.772;9.148;2024-02-26T03:14:38;7.91;60.26
6480;DHT22;71753;48.772;9.148;2024-02-26T03:17:05;7.99;59.80
6480;DHT22;71753;48.772;9.148;2024-02-26T03:19:32;7.96;62.09
6480;DHT22;71753;48.772;9.148;2024-02-26T03:21:58;7.93;62.44
6480;DHT22;71753;48.772;9.148;2024-02-26T03:24:25;7.86;60.99
6480;DHT22;71753;48.772;9.148;2024-02-26T03:26:51;7.73;63.40
6480;DHT22;71753;48.772;9.148;2024-02-26T03:29:19;7.75;63.49
6480;DHT22;71753;48.772;9.148;2024-02-26T03:31:46;7.86;61.82
6480;DHT22;71753;48.772;9.148;2024-02-26T03:34:13;8.11;60.02
6480;DHT22;71753;48.772;9.148;2024-02-26T03:36:40;8.47;57.13
6480;DHT22;71753;48.772;9.148;2024-02-26T03:39:06;8.51;58.48
6480;DHT22;71753;48.772;9.148;2024-02-26T03:41:34;8.36;60.83
6480;DHT22;71753;48.772;9.148;2024-02-26T03:44:01;8.30;62.70
6480;DHT22;71753;48.772;9.148;2024-02-26T03:46:29;8.15;62.77
6480;DHT22;71753;48.772;9.148;2024-02-26T03:48:56;7.92;66.97
6480;DHT22;71753;48.772;9.148;2024-02-26T03:51:22;7.97;66.03
6480;DHT22;71753;48.772;9.148;2024-02-26T03:53:49;7.85;63.29
6480;DHT22;71753;48.772;9.148;2024-02-26T03:56:16;7.93;64.11
6480;DHT22;71753;48.772;9.148;2024-02-26T03:58:42;7.83;66.16
6480;DHT22;71753;48.772;9.148;2024-02-26T04:01:09;7.65;65.92
6480;DHT22;71753;48.772;9.148;2024-02-26T04:03:37;7.53;67.60
6480;DHT22;71753;48.772;9.148;2024-02-26T04:06:04;7.50;65.93
6480;DHT22;71753;48.772;9.148;2024-02-26T04:08:31;7.49;65.90
6480;DHT22;71753;48.772;9.148;2024-02-26T04:10:57;7.42;66.02
6480;DHT22;71753;48.772;9.148;2024-02-26T04:13:24;7.39;67.04
6480;DHT22;71753;48.772;9.148;2024-02-26T04:15:51;7.39;66.46
6480;DHT22;71753;48.772;9.148;2024-02-26T04:18:17;7.38;67.07
6480;DHT22;71753;48.772;9.148;2024-02-26T04:20:45;7.30;68.72
6480;DHT22;71753;48.772;9.148;2024-02-26T04:23:12;7.23;67.38
6480;DHT22;71753;48.772;9.148;2024-02-26T04:25:38;7.28;68.47
6480;DHT22;71753;48.772;9.148;2024-02-26T04:28:05;7.24;67.54
6480;DHT22;71753;48.772;9.148;2024-02-26T04:30:32;7.29;67.26
6480;DHT22;71753;48.772;9.148;2024-02-26T04:32:58;7.18;67.60
6480;DHT22;71753;48.772;9.148;2024-02-26T04:35:25;7.15;67.08
6480;DHT22;71753;48.772;9.148;2024-02-26T04:37:53;7.09;68.74
6480;DHT22;71753;48.772;9.148;2024-02-26T04:40:20;7.27;67.32
6480;DHT22;71753;48.772;9.148;2024-02-26T04:42:46;7.11;69.58
6480;DHT22;71753;48.772;9.148;2024-02-26T04:45:13;7.17;68.41
6480;DHT22;71753;48.772;9.148;2024-02-26T04:47:40;7.17;67.96
6480;DHT22;71753;48.772;9.148;2024-02-26T04:50:07;7.23;67.88
6480;DHT22;71753;48.772;9.148;2024-02-26T04:52:34;7.10;69.65
6480;DHT22;71753;48.772;9.148;2024-02-26T04:55:02;7.16;69.10
6480;DHT22;71753;48.772;9.148;2024-02-26T04:57:28;7.03;70.11
6480;DHT22;71753;48.772;9.148;2024-02-26T04:59:55;7.00;69.95
6480;DHT22;71753;48.772;9.148;2024-02-26T05:02:22;7.08;69.14
6480;DHT22;71753;48.772;9.148;2024-02-26T05:04:49;7.09;67.39
6480;DHT22;71753;48.772;9.148;2024-02-26T05:07:16;7.19;65.90
6480;DHT22;71753;48.772;9.148;2024-02-26T05:09:44;7.17;66.21
6480;DHT22;71753;48.772;9.148;2024-02-26T05:12:12;7.16;65.14
6480;DHT22;71753;48.772;9.148;2024-02-26T05:14:39;7.14;65.66
6480;DHT22;71753;48.772;9.148;2024-02-26T05:17:06;7.09;66.09
6480;DHT22;71753;48.772;9.148;2024-02-26T05:19:32;7.05;66.26
6480;DHT22;71753;48.772;9.148;2024-02-26T05:21:59;6.99;67.04
6480;DHT22;71753;48.772;9.148;2024-02-26T05:24:26;6.94;65.80
6480;DHT22;71753;48.772;9.148;2024-02-26T05:26:53;6.94;66.32
6480;DHT22;71753;48.772;9.148;2024-02-26T05:29:21;6.96;66.87
6480;DHT22;71753;48.772;9.148;2024-02-26T05:31:48;6.97;66.64
6480;DHT22;71753;48.772;9.148;2024-02-26T05:34:14;6.93;66.75
6480;DHT22;71753;48.772;9.148;2024-02-26T05:36:41;6.93;66.94
6480;DHT22;71753;48.772;9.148;2024-02-26T05:39:07;6.91;66.68
6480;DHT22;71753;48.772;9.148;2024-02-26T05:41:37;6.97;66.78
6480;DHT22;71753;48.772;9.148;2024-02-26T05:44:04;7.03;66.64
6480;DHT22;71753;48.772;9.148;2024-02-26T05:46:32;6.93;68.09
6480;DHT22;71753;48.772;9.148;2024-02-26T05:48:58;6.83;69.52
6480;DHT22;71753;48.772;9.148;2024-02-26T05:51:25;6.85;68.81
6480;DHT22;71753;48.772;9.148;2024-02-26T05:53:52;6.94;67.17
6480;DHT22;71753;48.772;9.148;2024-02-26T05:56:20;6.85;69.10
6480;DHT22;71753;48.772;9.148;2024-02-26T05:58:47;6.98;65.15
6480;DHT22;71753;48.772;9.148;2024-02-26T06:01:15;6.97;68.54
6480;DHT22;71753;48.772;9.148;2024-02-26T06:03:43;6.99;68.34
6480;DHT22;71753;48.772;9.148;2024-02-26T06:06:10;6.82;71.64
6480;DHT22;71753;48.772;9.148;2024-02-26T06:08:37;6.75;72.08
6480;DHT22;71753;48.772;9.148;2024-02-26T06:11:05;6.58;73.47
6480;DHT22;71753;48.772;9.148;2024-02-26T06:13:33;6.49;74.42
6480;DHT22;71753;48.772;9.148;2024-02-26T06:16:00;6.44;74.68
6480;DHT22;71753;48.772;9.148;2024-02-26T06:18:26;6.26;77.50
6480;DHT22;71753;48.772;9.148;2024-02-26T06:20:54;6.37;77.54
6480;DHT22;71753;48.772;9.148;2024-02-26T06:23:21;6.46;77.98
6480;DHT22;71753;48.772;9.148;2024-02-26T06:25:47;6.48;76.94
6480;DHT22;71753;48.772;9.148;2024-02-26T06:28:14;6.51;76.34
6480;DHT22;71753;48.772;9.148;2024-02-26T06:30:41;6.59;75.66
6480;DHT22;71753;48.772;9.148;2024-02-26T06:33:07;6.55;78.40
6480;DHT22;71753;48.772;9.148;2024-02-26T06:35:34;6.41;80.20
6480;DHT22;71753;48.772;9.148;2024-02-26T06:38:02;6.41;79.06
6480;DHT22;71753;48.772;9.148;2024-02-26T06:40:30;6.27;80.08
6480;DHT22;71753;48.772;9.148;2024-02-26T06:42:56;6.23;80.27
6480;DHT22;71753;48.772;9.148;2024-02-26T06:45:23;6.29;78.63
6480;DHT22;71753;48.772;9.148;2024-02-26T06:47:49;6.26;80.24
6480;DHT22;71753;48.772;9.148;2024-02-26T06:50:16;6.21;80.50
6480;DHT22;71753;48.772;9.148;2024-02-26T06:52:44;6.38;80.46
6480;DHT22;71753;48.772;9.148;2024-02-26T06:55:12;6.40;80.88
6480;DHT22;71753;48.772;9.148;2024-02-26T06:57:38;6.37;80.81
6480;DHT22;71753;48.772;9.148;2024-02-26T07:00:06;6.48;79.37
6480;DHT22;71753;48.772;9.148;2024-02-26T07:02:33;6.65;79.72
6480;DHT22;71753;48.772;9.148;2024-02-26T07:04:59;6.81;78.92
6480;DHT22;71753;48.772;9.148;2024-02-26T07:07:26;6.93;77.36
6480;DHT22;71753;48.772;9.148;2024-02-26T07:09:53;7.07;76.86
6480;DHT22;71753;48.772;9.148;2024-02-26T07:12:21;7.14;75.87
6480;DHT22;71753;48.772;9.148;2024-02-26T07:14:50;7.26;74.74
6480;DHT22;71753;48.772;9.148;2024-02-26T07:17:17;7.18;74.90
6480;DHT22;71753;48.772;9.148;2024-02-26T07:19:45;7.25;73.74
6480;DHT22;71753;48.772;9.148;2024-02-26T07:22:11;7.34;73.36
6480;DHT22;71753;48.772;9.148;2024-02-26T07:24:39;7.38;73.03
6480;DHT22;71753;48.772;9.148;2024-02-26T07:27:05;7.31;73.50
6480;DHT22;71753;48.772;9.148;2024-02-26T07:29:33;7.24;73.77
6480;DHT22;71753;48.772;9.148;2024-02-26T07:32:00;7.17;74.28
6480;DHT22;71753;48.772;9.148;2024-02-26T07:34:27;7.20;74.29
6480;DHT22;71753;48.772;9.148;2024-02-26T07:36:54;7.34;73.72
6480;DHT22;71753;48.772;9.148;2024-02-26T07:39:21;7.46;74.22
6480;DHT22;71753;48.772;9.148;2024-02-26T07:41:48;7.67;74.34
6480;DHT22;71753;48.772;9.148;2024-02-26T07:44:17;7.74;73.00
6480;DHT22;71753;48.772;9.148;2024-02-26T07:46:45;7.94;72.87
6480;DHT22;71753;48.772;9.148;2024-02-26T07:49:11;7.89;74.02
6480;DHT22;71753;48.772;9.148;2024-02-26T07:51:38;8.05;73.73
6480;DHT22;71753;48.772;9.148;2024-02-26T07:54:05;8.20;72.01
6480;DHT22;71753;48.772;9.148;2024-02-26T07:56:31;8.17;68.84
6480;DHT22;71753;48.772;9.148;2024-02-26T07:58:58;8.08;68.77
6480;DHT22;71753;48.772;9.148;2024-02-26T08:01:25;8.16;69.04
6480;DHT22;71753;48.772;9.148;2024-02-26T08:03:53;8.16;70.29
6480;DHT22;71753;48.772;9.148;2024-02-26T08:06:21;7.93;70.77
6480;DHT22;71753;48.772;9.148;2024-02-26T08:08:47;7.87;71.61
6480;DHT22;71753;48.772;9.148;2024-02-26T08:11:14;7.98;71.70
6480;DHT22;71753;48.772;9.148;2024-02-26T08:13:41;7.99;70.58
6480;DHT22;71753;48.772;9.148;2024-02-26T08:16:08;8.13;72.03
6480;DHT22;71753;48.772;9.148;2024-02-26T08:18:34;8.15;70.13
6480;DHT22;71753;48.772;9.148;2024-02-26T08:21:03;8.08;71.11
6480;DHT22;71753;48.772;9.148;2024-02-26T08:23:30;8.23;71.87
6480;DHT22;71753;48.772;9.148;2024-02-26T08:25:57;8.23;70.13
6480;DHT22;71753;48.772;9.148;2024-02-26T08:28:23;8.30;70.32
6480;DHT22;71753;48.772;9.148;2024-02-26T08:30:50;8.37;69.13
6480;DHT22;71753;48.772;9.148;2024-02-26T08:33:19;8.53;69.07
6480;DHT22;71753;48.772;9.148;2024-02-26T08:35:46;8.58;67.83
6480;DHT22;71753;48.772;9.148;2024-02-26T08:38:14;8.74;66.96
6480;DHT22;71753;48.772;9.148;2024-02-26T08:40:41;8.67;67.01
6480;DHT22;71753;48.772;9.148;2024-02-26T08:43:07;8.68;66.00
6480;DHT22;71753;48.772;9.148;2024-02-26T08:45:35;8.67;66.21
6480;DHT22;71753;48.772;9.148;2024-02-26T08:48:02;8.77;65.35
6480;DHT22;71753;48.772;9.148;2024-02-26T08:50:29;8.92;65.19
6480;DHT22;71753;48.772;9.148;2024-02-26T08:52:56;9.03;63.36
6480;DHT22;71753;48.772;9.148;2024-02-26T08:55:24;9.09;63.58
6480;DHT22;71753;48.772;9.148;2024-02-26T08:57:51;8.82;65.34
6480;DHT22;71753;48.772;9.148;2024-02-26T09:00:18;8.81;63.66
6480;DHT22;71753;48.772;9.148;2024-02-26T09:02:46;8.96;62.74
6480;DHT22;71753;48.772;9.148;2024-02-26T09:05:14;9.02;60.79
6480;DHT22;71753;48.772;9.148;2024-02-26T09:07:41;9.20;61.70
6480;DHT22;71753;48.772;9.148;2024-02-26T09:10:08;9.38;61.87
6480;DHT22;71753;48.772;9.148;2024-02-26T09:12:37;9.64;59.04
6480;DHT22;71753;48.772;9.148;2024-02-26T09:15:05;9.67;59.06
6480;DHT22;71753;48.772;9.148;2024-02-26T09:17:32;9.42;60.02
6480;DHT22;71753;48.772;9.148;2024-02-26T09:19:59;9.52;59.67
6480;DHT22;71753;48.772;9.148;2024-02-26T09:22:26;9.39;58.97
6480;DHT22;71753;48.772;9.148;2024-02-26T09:24:55;9.34;60.93
6480;DHT22;71753;48.772;9.148;2024-02-26T09:27:22;9.12;61.20
6480;DHT22;71753;48.772;9.148;2024-02-26T09:29:50;9.26;59.98
6480;DHT22;71753;48.772;9.148;2024-02-26T09:32:17;9.63;60.37
6480;DHT22;71753;48.772;9.148;2024-02-26T09:34:44;9.68;58.92
6480;DHT22;71753;48.772;9.148;2024-02-26T09:37:11;9.62;58.61
6480;DHT22;71753;48.772;9.148;2024-02-26T09:39:38;9.34;60.20
6480;DHT22;71753;48.772;9.148;2024-02-26T09:42:05;9.30;60.06
6480;DHT22;71753;48.772;9.148;2024-02-26T09:44:36;9.40;59.19
6480;DHT22;71753;48.772;9.148;2024-02-26T09:47:09;9.30;61.27
6480;DHT22;71753;48.772;9.148;2024-02-26T09:49:37;9.35;61.80
6480;DHT22;71753;48.772;9.148;2024-02-26T09:52:05;9.44;61.94
6480;DHT22;71753;48.772;9.148;2024-02-26T09:54:33;9.52;61.79
6480;DHT22;71753;48.772;9.148;2024-02-26T09:57:02;9.45;61.48
6480;DHT22;71753;48.772;9.148;2024-02-26T09:59:29;9.44;60.67
6480;DHT22;71753;48.772;9.148;2024-02-26T10:02:01;9.31;60.04
6480;DHT22;71753;48.772;9.148;2024-02-26T10:04:30;10.00;58.31
6480;DHT22;71753;48.772;9.148;2024-02-26T10:06:57;10.64;56.35
6480;DHT22;71753;48.772;9.148;2024-02-26T10:09:26;10.36;57.19
6480;DHT22;71753;48.772;9.148;2024-02-26T10:11:53;9.86;58.30
6480;DHT22;71753;48.772;9.148;2024-02-26T10:14:20;9.69;59.54
6480;DHT22;71753;48.772;9.148;2024-02-26T10:16:48;9.63;58.83
6480;DHT22;71753;48.772;9.148;2024-02-26T10:19:25;9.91;58.09
6480;DHT22;71753;48.772;9.148;2024-02-26T10:21:56;9.98;56.93
6480;DHT22;71753;48.772;9.148;2024-02-26T10:24:23;10.14;57.21
6480;DHT22;71753;48.772;9.148;2024-02-26T10:26:51;10.24;58.96
6480;DHT22;71753;48.772;9.148;2024-02-26T10:29:18;10.51;59.12
6480;DHT22;71753;48.772;9.148;2024-02-26T10:31:45;10.62;56.72
6480;DHT22;71753;48.772;9.148;2024-02-26T10:34:12;10.24;57.48
6480;DHT22;71753;48.772;9.148;2024-02-26T10:36:39;10.59;57.20
6480;DHT22;71753;48.772;9.148;2024-02-26T10:39:07;11.17;54.44
6480;DHT22;71753;48.772;9.148;2024-02-26T10:41:34;10.95;54.04
6480;DHT22;71753;48.772;9.148;2024-02-26T10:44:01;11.04;54.30
6480;DHT22;71753;48.772;9.148;2024-02-26T10:46:28;10.92;56.20
6480;DHT22;71753;48.772;9.148;2024-02-26T10:48:56;10.95;55.42
6480;DHT22;71753;48.772;9.148;2024-02-26T10:51:26;11.10;54.77
6480;DHT22;71753;48.772;9.148;2024-02-26T10:53:55;11.28;55.22
6480;DHT22;71753;48.772;9.148;2024-02-26T10:56:26;10.99;54.26
6480;DHT22;71753;48.772;9.148;2024-02-26T10:58:55;10.66;56.22
6480;DHT22;71753;48.772;9.148;2024-02-26T11:01:22;10.66;56.44
6480;DHT22;71753;48.772;9.148;2024-02-26T11:03:51;10.96;54.95
6480;DHT22;71753;48.772;9.148;2024-02-26T11:06:18;11.31;53.31
6480;DHT22;71753;48.772;9.148;2024-02-26T11:08:48;11.24;53.98
6480;DHT22;71753;48.772;9.148;2024-02-26T11:11:15;11.27;53.94
6480;DHT22;71753;48.772;9.148;2024-02-26T11:13:46;11.38;53.17
6480;DHT22;71753;48.772;9.148;2024-02-26T11:16:16;11.72;53.66
6480;DHT22;71753;48.772;9.148;2024-02-26T11:18:46;12.30;51.81
6480;DHT22;71753;48.772;9.148;2024-02-26T11:21:15;12.41;51.19
6480;DHT22;71753;48.772;9.148;2024-02-26T11:23:42;11.74;52.10
6480;DHT22;71753;48.772;9.148;2024-02-26T11:26:10;11.25;53.82
6480;DHT22;71753;48.772;9.148;2024-02-26T11:28:38;11.19;54.01
6480;DHT22;71753;48.772;9.148;2024-02-26T11:31:07;11.28;53.18
6480;DHT22;71753;48.772;9.148;2024-02-26T11:33:34;11.53;53.01
6480;DHT22;71753;48.772;9.148;2024-02-26T11:36:02;11.86;52.22
6480;DHT22;71753;48.772;9.148;2024-02-26T11:38:29;11.93;52.23
6480;DHT22;71753;48.772;9.148;2024-02-26T11:40:56;12.08;51.08
6480;DHT22;71753;48.772;9.148;2024-02-26T11:43:49;12.00;51.25
6480;DHT22;71753;48.772;9.148;2024-02-26T11:46:26;12.04;50.53
6480;DHT22;71753;48.772;9.148;2024-02-26T11:48:55;12.04;50.75
6480;DHT22;71753;48.772;9.148;2024-02-26T11:51:25;12.12;49.91
6480;DHT22;71753;48.772;9.148;2024-02-26T11:53:52;11.98;50.94
6480;DHT22;71753;48.772;9.148;2024-02-26T11:56:23;11.59;51.63
6480;DHT22;71753;48.772;9.148;2024-02-26T11:58:56;11.83;52.14
6480;DHT22;71753;48.772;9.148;2024-02-26T12:04:15;12.02;51.11
6480;DHT22;71753;48.772;9.148;2024-02-26T12:06:45;11.90;51.31
6480;DHT22;71753;48.772;9.148;2024-02-26T12:09:12;11.59;52.46
6480;DHT22;71753;48.772;9.148;2024-02-26T12:11:40;11.83;52.62
6480;DHT22;71753;48.772;9.148;2024-02-26T12:14:07;12.06;52.44
6480;DHT22;71753;48.772;9.148;2024-02-26T12:16:39;12.23;50.80
6480;DHT22;71753;48.772;9.148;2024-02-26T12:19:09;12.29;51.66
6480;DHT22;71753;48.772;9.148;2024-02-26T12:21:37;12.10;51.29
6480;DHT22;71753;48.772;9.148;2024-02-26T12:24:10;12.20;52.16
6480;DHT22;71753;48.772;9.148;2024-02-26T12:26:37;12.60;50.78
6480;DHT22;71753;48.772;9.148;2024-02-26T12:29:03;12.93;49.86
6480;DHT22;71753;48.772;9.148;2024-02-26T12:31:30;12.74;50.07
6480;DHT22;71753;48.772;9.148;2024-02-26T12:33:59;12.36;51.58
6480;DHT22;71753;48.772;9.148;2024-02-26T12:36:26;12.27;51.80
6480;DHT22;71753;48.772;9.148;2024-02-26T12:38:53;12.16;52.48
6480;DHT22;71753;48.772;9.148;2024-02-26T12:41:22;12.14;52.36
6480;DHT22;71753;48.772;9.148;2024-02-26T12:43:49;12.31;51.87
6480;DHT22;71753;48.772;9.148;2024-02-26T12:46:16;12.53;52.21
6480;DHT22;71753;48.772;9.148;2024-02-26T12:48:43;12.67;51.75
6480;DHT22;71753;48.772;9.148;2024-02-26T12:51:12;12.75;51.95
6480;DHT22;71753;48.772;9.148;2024-02-26T12:53:41;12.79;51.48
6480;DHT22;71753;48.772;9.148;2024-02-26T12:56:09;12.63;52.12
6480;DHT22;71753;48.772;9.148;2024-02-26T12:58:37;12.63;51.75
6480;DHT22;71753;48.772;9.148;2024-02-26T13:01:05;12.50;52.19
6480;DHT22;71753;48.772;9.148;2024-02-26T13:03:33;12.72;52.51
6480;DHT22;71753;48.772;9.148;2024-02-26T13:06:01;12.62;52.42
6480;DHT22;71753;48.772;9.148;2024-02-26T13:08:32;13.00;51.98
6480;DHT22;71753;48.772;9.148;2024-02-26T13:10:59;13.16;50.08
6480;DHT22;71753;48.772;9.148;2024-02-26T13:13:26;12.93;51.21
6480;DHT22;71753;48.772;9.148;2024-02-26T13:16:01;13.05;51.14
6480;DHT22;71753;48.772;9.148;2024-02-26T13:18:29;13.02;51.24
6480;DHT22;71753;48.772;9.148;2024-02-26T13:21:07;13.23;50.47
6480;DHT22;71753;48.772;9.148;2024-02-26T13:23:36;13.04;50.24
6480;DHT22;71753;48.772;9.148;2024-02-26T13:26:03;12.81;51.98
6480;DHT22;71753;48.772;9.148;2024-02-26T13:28:30;12.96;51.43
6480;DHT22;71753;48.772;9.148;2024-02-26T13:30:57;13.02;51.04
6480;DHT22;71753;48.772;9.148;2024-02-26T13:33:26;13.03;50.43
6480;DHT22;71753;48.772;9.148;2024-02-26T13:35:54;13.05;51.27
6480;DHT22;71753;48.772;9.148;2024-02-26T13:38:20;13.03;50.50
6480;DHT22;71753;48.772;9.148;2024-02-26T13:40:49;13.05;50.25
6480;DHT22;71753;48.772;9.148;2024-02-26T13:43:16;13.02;50.18
6480;DHT22;71753;48.772;9.148;2024-02-26T13:45:43;13.00;50.34
6480;DHT22;71753;48.772;9.148;2024-02-26T13:48:12;13.07;49.34
6480;DHT22;71753;48.772;9.148;2024-02-26T13:50:39;13.09;49.48
6480;DHT22;71753;48.772;9.148;2024-02-26T13:53:06;13.18;49.49
6480;DHT22;71753;48.772;9.148;2024-02-26T13:55:33;13.24;49.41
6480;DHT22;71753;48.772;9.148;2024-02-26T13:58:02;13.05;48.54
6480;DHT22;71753;48.772;9.148;2024-02-26T14:00:29;12.94;49.42
6480;DHT22;71753;48.772;9.148;2024-02-26T14:02:57;13.04;48.39
6480;DHT22;71753;48.772;9.148;2024-02-26T14:05:24;13.35;49.11
6480;DHT22;71753;48.772;9.148;2024-02-26T14:07:52;13.29;49.53
6480;DHT22;71753;48.772;9.148;2024-02-26T14:10:21;13.27;49.94
6480;DHT22;71753;48.772;9.148;2024-02-26T14:12:50;13.25;50.77
6480;DHT22;71753;48.772;9.148;2024-02-26T14:15:18;13.35;50.22
6480;DHT22;71753;48.772;9.148;2024-02-26T14:17:44;13.38;50.19
6480;DHT22;71753;48.772;9.148;2024-02-26T14:20:18;13.30;50.60
6480;DHT22;71753;48.772;9.148;2024-02-26T14:22:45;13.07;51.59
6480;DHT22;71753;48.772;9.148;2024-02-26T14:25:12;13.06;52.04
6480;DHT22;71753;48.772;9.148;2024-02-26T14:27:39;13.17;51.21
6480;DHT22;71753;48.772;9.148;2024-02-26T14:30:06;13.15;51.95
6480;DHT22;71753;48.772;9.148;2024-02-26T14:32:34;13.20;51.53
6480;DHT22;71753;48.772;9.148;2024-02-26T14:35:04;13.24;51.81
6480;DHT22;71753;48.772;9.148;2024-02-26T14:37:31;13.30;51.31
6480;DHT22;71753;48.772;9.148;2024-02-26T14:39:58;13.20;51.79
6480;DHT22;71753;48.772;9.148;2024-02-26T14:42:25;13.06;50.63
6480;DHT22;71753;48.772;9.148;2024-02-26T14:44:52;13.06;49.79
6480;DHT22;71753;48.772;9.148;2024-02-26T14:47:18;13.00;50.34
6480;DHT22;71753;48.772;9.148;2024-02-26T14:49:46;12.96;51.59
6480;DHT22;71753;48.772;9.148;2024-02-26T14:52:14;12.93;51.74
6480;DHT22;71753;48.772;9.148;2024-02-26T14:54:40;12.95;50.35
6480;DHT22;71753;48.772;9.148;2024-02-26T14:57:07;13.03;50.65
6480;DHT22;71753;48.772;9.148;2024-02-26T14:59:34;13.05;52.30
6480;DHT22;71753;48.772;9.148;2024-02-26T15:02:02;13.01;52.70
6480;DHT22;71753;48.772;9.148;2024-02-26T15:04:28;13.04;52.55
6480;DHT22;71753;48.772;9.148;2024-02-26T15:06:56;13.04;52.75
6480;DHT22;71753;48.772;9.148;2024-02-26T15:09:23;13.03;52.82
6480;DHT22;71753;48.772;9.148;2024-02-26T15:11:50;13.04;53.00
6480;DHT22;71753;48.772;9.148;2024-02-26T15:14:17;12.89;53.14
6480;DHT22;71753;48.772;9.148;2024-02-26T15:16:44;12.85;52.82
6480;DHT22;71753;48.772;9.148;2024-02-26T15:19:10;12.82;49.52
6480;DHT22;71753;48.772;9.148;2024-02-26T15:21:42;12.82;49.48
6480;DHT22;71753;48.772;9.148;2024-02-26T15:24:11;12.85;49.18
6480;DHT22;71753;48.772;9.148;2024-02-26T15:26:38;12.82;49.39
6480;DHT22;71753;48.772;9.148;2024-02-26T15:29:06;12.74;49.37
6480;DHT22;71753;48.772;9.148;2024-02-26T15:31:34;12.72;49.66
6480;DHT22;71753;48.772;9.148;2024-02-26T15:34:00;12.66;49.54
6480;DHT22;71753;48.772;9.148;2024-02-26T15:36:27;12.67;48.43
6480;DHT22;71753;48.772;9.148;2024-02-26T15:38:54;12.66;48.22
6480;DHT22;71753;48.772;9.148;2024-02-26T15:41:23;12.62;48.87
6480;DHT22;71753;48.772;9.148;2024-02-26T15:43:50;12.59;48.79
6480;DHT22;71753;48.772;9.148;2024-02-26T15:46:17;12.58;48.90
6480;DHT22;71753;48.772;9.148;2024-02-26T15:48:44;12.55;49.33
6480;DHT22;71753;48.772;9.148;2024-02-26T15:51:18;12.57;49.19
6480;DHT22;71753;48.772;9.148;2024-02-26T15:53:45;12.52;49.77
6480;DHT22;71753;48.772;9.148;2024-02-26T15:56:12;12.48;50.25
6480;DHT22;71753;48.772;9.148;2024-02-26T15:58:41;12.44;50.76
6480;DHT22;71753;48.772;9.148;2024-02-26T16:01:07;12.44;51.01